Time;durP1;ratioP1;P1;durP2;ratioP2;P2;SDS_P1;SDS_P2;PMS_P1;PMS_P2;Temp;Humidity;BMP_temperature;BMP_pressure;BME280_temperature;BME280_humidity;BME280_pressure;Samples;Min_cycle;Max_cycle;Signal;HPM_P1;HPM_P2
2022/09/19 00:01:11;;;;;;;0.20;0.20;;;;;;;;;;10310064;28;20046;-79
2022/09/19 00:06:16;;;;;;;0.93;0.30;;;;;;;;;;10306134;28;20042;-78
2022/09/19 00:11:21;;;;;;;0.77;0.25;;;;;;;;;;10317896;28;20498;-79
2022/09/19 00:16:27;;;;;;;1.13;0.37;;;;;;;;;;10319394;28;20042;-81
2022/09/19 00:21:35;;;;;;;0.32;0.30;;;;;;;;;;10318203;28;20113;-78
2022/09/19 00:26:40;;;;;;;0.20;0.20;;;;;;;;;;10311364;28;20039;-78
2022/09/19 00:31:46;;;;;;;2.28;0.55;;;;;;;;;;10302498;28;20410;-78
2022/09/19 00:36:50;;;;;;;1.52;0.40;;;;;;;;;;10303044;28;20046;-78
2022/09/19 00:41:55;;;;;;;2.67;0.30;;;;;;;;;;10327836;28;20049;-79
2022/09/19 00:47:13;;;;;;;1.23;0.40;;;;;;;;;;10301176;28;20038;-78
2022/09/19 00:52:20;;;;;;;4.22;1.00;;;;;;;;;;10318022;28;20507;-78
2022/09/19 00:57:33;;;;;;;2.75;0.60;;;;;;;;;;10300513;28;20038;-79
2022/09/19 01:02:36;;;;;;;2.17;0.70;;;;;;;;;;10309565;28;20046;-80
2022/09/19 01:07:55;;;;;;;1.00;0.60;;;;;;;;;;10300069;28;20068;-79
2022/09/19 01:13:09;;;;;;;1.23;0.40;;;;;;;;;;10301396;28;20488;-77
2022/09/19 01:18:16;;;;;;;1.75;0.47;;;;;;;;;;10317082;28;20426;-78
2022/09/19 01:23:39;;;;;;;2.97;0.98;;;;;;;;;;10307042;28;20178;-78
2022/09/19 01:28:50;;;;;;;2.63;0.60;;;;;;;;;;10303025;28;20059;-78
2022/09/19 01:34:02;;;;;;;0.85;0.47;;;;;;;;;;10300265;28;20045;-78
2022/09/19 01:39:09;;;;;;;2.13;0.50;;;;;;;;;;10300077;28;20078;-77
2022/09/19 01:44:22;;;;;;;3.25;0.88;;;;;;;;;;10299957;28;20042;-78
2022/09/19 01:49:40;;;;;;;2.15;0.40;;;;;;;;;;10299454;28;20537;-79
2022/09/19 01:54:49;;;;;;;3.42;0.60;;;;;;;;;;10301161;28;20053;-79
2022/09/19 02:00:05;;;;;;;4.00;0.90;;;;;;;;;;10298165;28;20105;-81
2022/09/19 02:05:27;;;;;;;1.42;0.30;;;;;;;;;;10316550;28;20042;-79
2022/09/19 02:10:36;;;;;;;4.22;0.95;;;;;;;;;;10298083;28;20066;-79
2022/09/19 02:15:47;;;;;;;2.75;0.88;;;;;;;;;;10291107;28;20044;-78
2022/09/19 02:20:56;;;;;;;2.42;0.80;;;;;;;;;;10297468;28;20054;-78
2022/09/19 02:26:05;;;;;;;3.90;0.93;;;;;;;;;;10298048;28;20042;-80
2022/09/19 02:31:12;;;;;;;4.07;0.98;;;;;;;;;;10297626;28;20057;-80
2022/09/19 02:36:21;;;;;;;0.98;0.50;;;;;;;;;;10296163;28;20057;-80
2022/09/19 02:41:30;;;;;;;1.92;0.38;;;;;;;;;;10297494;28;20133;-79
2022/09/19 02:46:41;;;;;;;1.40;0.43;;;;;;;;;;10296689;28;20045;-78
2022/09/19 02:51:49;;;;;;;5.18;1.38;;;;;;;;;;10289088;28;20108;-77
2022/09/19 02:56:54;;;;;;;1.52;0.50;;;;;;;;;;10296151;28;20038;-79
2022/09/19 03:02:03;;;;;;;2.70;0.63;;;;;;;;;;10297298;28;20046;-81
2022/09/19 03:07:13;;;;;;;2.28;0.60;;;;;;;;;;10295780;28;20692;-82
2022/09/19 03:12:37;;;;;;;3.87;0.47;;;;;;;;;;10297125;28;20105;-79
2022/09/19 03:17:49;;;;;;;0.88;0.50;;;;;;;;;;10288307;28;20066;-78
2022/09/19 03:22:54;;;;;;;5.75;1.35;;;;;;;;;;10296146;28;20057;-79
2022/09/19 03:27:59;;;;;;;2.33;0.77;;;;;;;;;;10295389;28;20400;-80
2022/09/19 03:33:05;;;;;;;1.75;0.50;;;;;;;;;;10294662;28;20065;-77
2022/09/19 03:38:10;;;;;;;2.50;0.63;;;;;;;;;;10296848;28;20502;-81
2022/09/19 03:43:14;;;;;;;6.93;0.88;;;;;;;;;;10295307;28;20076;-83
2022/09/19 03:48:19;;;;;;;4.75;1.42;;;;;;;;;;10302554;28;20050;-79
2022/09/19 03:53:23;;;;;;;1.48;0.50;;;;;;;;;;10304204;28;20128;-78
2022/09/19 03:58:30;;;;;;;2.03;0.68;;;;;;;;;;10297314;28;20057;-81
2022/09/19 04:03:36;;;;;;;1.80;0.50;;;;;;;;;;10311249;28;20052;-80
2022/09/19 04:08:41;;;;;;;7.18;1.30;;;;;;;;;;10296114;28;20050;-80
2022/09/19 04:13:44;;;;;;;4.30;0.82;;;;;;;;;;10302288;28;20056;-79
2022/09/19 04:18:52;;;;;;;0.73;0.60;;;;;;;;;;10303267;28;20050;-79
2022/09/19 04:24:21;;;;;;;2.75;1.00;;;;;;;;;;10314725;28;20046;-79
2022/09/19 04:29:44;;;;;;;5.20;1.13;;;;;;;;;;10302791;28;20057;-78
2022/09/19 04:34:49;;;;;;;5.00;1.25;;;;;;;;;;10309108;28;20101;-80
2022/09/19 04:39:53;;;;;;;3.75;0.90;;;;;;;;;;10301397;28;20042;-78
2022/09/19 04:44:57;;;;;;;4.65;0.73;;;;;;;;;;10302289;28;20034;-80
2022/09/19 04:50:15;;;;;;;2.28;0.50;;;;;;;;;;10294455;28;20133;-78
2022/09/19 04:55:33;;;;;;;4.47;0.75;;;;;;;;;;10302863;28;20062;-78
2022/09/19 05:00:41;;;;;;;2.05;0.60;;;;;;;;;;10301519;28;20092;-78
2022/09/19 05:05:53;;;;;;;3.35;0.60;;;;;;;;;;10301914;28;20077;-79
2022/09/19 05:11:07;;;;;;;2.35;0.60;;;;;;;;;;10322380;28;20529;-79
2022/09/19 05:16:13;;;;;;;2.55;0.70;;;;;;;;;;10306263;28;20038;-81
2022/09/19 05:21:23;;;;;;;1.13;0.50;;;;;;;;;;10305733;28;20042;-79
2022/09/19 05:26:27;;;;;;;2.70;0.73;;;;;;;;;;10304647;28;20038;-79
2022/09/19 05:31:35;;;;;;;1.10;0.63;;;;;;;;;;10304391;28;20069;-79
2022/09/19 05:36:57;;;;;;;4.47;1.10;;;;;;;;;;10300725;28;20042;-77
2022/09/19 05:42:10;;;;;;;2.33;0.70;;;;;;;;;;10310380;28;20078;-78
2022/09/19 05:47:15;;;;;;;2.00;0.68;;;;;;;;;;10309148;28;20038;-79
2022/09/19 05:57:44;;;;;;;3.83;1.15;;;;;;;;;;10280501;28;20042;-80
2022/09/19 06:02:54;;;;;;;3.55;1.27;;;;;;;;;;10305839;28;20130;-81
2022/09/19 06:08:00;;;;;;;7.25;1.55;;;;;;;;;;10303465;28;20049;-81
2022/09/19 06:13:05;;;;;;;3.80;1.20;;;;;;;;;;10317567;28;20061;-81
2022/09/19 06:18:10;;;;;;;1.05;0.55;;;;;;;;;;10308956;28;20042;-79
2022/09/19 06:23:19;;;;;;;3.85;1.02;;;;;;;;;;10303530;28;20042;-80
2022/09/19 06:28:24;;;;;;;2.35;1.02;;;;;;;;;;10304103;28;20038;-82
2022/09/19 06:33:38;;;;;;;3.38;0.98;;;;;;;;;;10319236;28;20069;-80
2022/09/19 06:38:52;;;;;;;2.97;0.75;;;;;;;;;;10318913;28;20061;-78
2022/09/19 06:44:12;;;;;;;5.15;1.23;;;;;;;;;;10291695;28;20034;-79
2022/09/19 06:49:35;;;;;;;7.05;1.92;;;;;;;;;;10320788;28;20101;-80
2022/09/19 06:55:00;;;;;;;3.55;0.90;;;;;;;;;;10309121;28;20410;-81
2022/09/19 07:00:06;;;;;;;3.05;1.05;;;;;;;;;;10301283;28;20068;-79
2022/09/19 07:05:12;;;;;;;4.35;1.38;;;;;;;;;;10300275;28;20066;-81
2022/09/19 07:10:28;;;;;;;;;;;;;;;;;;10312297;28;20058;-80
2022/09/19 07:15:33;;;;;;;1.83;1.00;;;;;;;;;;10316823;28;19929;-80
2022/09/19 07:20:37;;;;;;;3.30;1.10;;;;;;;;;;10316015;28;20121;-80
2022/09/19 07:25:55;;;;;;;3.65;1.35;;;;;;;;;;10317881;28;20047;-79
2022/09/19 07:31:00;;;;;;;3.47;0.90;;;;;;;;;;10308448;28;20046;-80
2022/09/19 07:36:07;;;;;;;;;;;;;;;;;;10303845;28;20546;-80
2022/09/19 07:41:13;;;;;;;4.10;1.33;;;;;;;;;;10303320;28;20021;-80
2022/09/19 07:47:26;;;;;;;3.58;1.00;;;;;;;;;;10276250;28;20042;-80
2022/09/19 07:52:24;;;;;;;3.05;1.42;;;;;;;;;;10301825;28;20042;-81
2022/09/19 07:57:30;;;;;;;4.75;1.15;;;;;;;;;;10302910;28;20120;-80
2022/09/19 08:02:33;;;;;;;3.07;0.83;;;;;;;;;;10310306;28;20042;-79
2022/09/19 08:07:37;;;;;;;2.00;0.80;;;;;;;;;;10301813;28;20049;-80
2022/09/19 08:12:45;;;;;;;3.20;1.30;;;;;;;;;;10318655;28;20053;-79
2022/09/19 08:17:56;;;;;;;;;;;;;;;;;;10308655;28;20039;-80
2022/09/19 08:23:00;;;;;;;2.03;0.90;;;;;;;;;;10322274;28;19952;-79
2022/09/19 08:28:06;;;;;;;3.28;1.10;;;;;;;;;;10304339;28;20398;-79
2022/09/19 08:33:11;;;;;;;3.50;0.90;;;;;;;;;;10315413;28;20050;-80
2022/09/19 08:38:16;;;;;;;1.95;0.80;;;;;;;;;;10310966;28;20036;-78
2022/09/19 08:43:24;;;;;;;2.55;1.02;;;;;;;;;;10320406;28;20526;-80
2022/09/19 08:48:33;;;;;;;1.95;0.77;;;;;;;;;;10313425;28;20125;-81
2022/09/19 08:53:43;;;;;;;3.20;0.98;;;;;;;;;;10308377;28;20042;-80
2022/09/19 08:58:55;;;;;;;0.85;0.50;;;;;;;;;;10308333;28;20039;-79
2022/09/19 09:04:23;;;;;;;1.10;0.45;;;;;;;;;;10314299;28;20042;-79
2022/09/19 09:09:41;;;;;;;3.13;1.00;;;;;;;;;;10308270;28;20039;-80
2022/09/19 09:14:58;;;;;;;7.40;1.48;;;;;;;;;;10300596;28;20050;-80
2022/09/19 09:20:36;;;;;;;3.65;1.17;;;;;;;;;;10302915;28;20850;-83
2022/09/19 09:25:46;;;;;;;8.40;1.98;;;;;;;;;;10316199;28;20092;-81
2022/09/19 09:31:01;;;;;;;2.67;1.00;;;;;;;;;;10306605;28;20053;-79
2022/09/19 09:36:10;;;;;;;1.73;0.50;;;;;;;;;;10308508;28;20038;-79
2022/09/19 09:46:53;;;;;;;7.05;1.80;;;;;;;;;;10304884;28;20043;-80
2022/09/19 09:52:24;;;;;;;5.60;1.30;;;;;;;;;;10301779;28;20038;-78
2022/09/19 09:57:37;;;;;;;3.42;0.82;;;;;;;;;;10294477;28;20050;-79
2022/09/19 10:08:28;;;;;;;1.90;0.77;;;;;;;;;;10299216;28;20482;-79
2022/09/19 10:14:01;;;;;;;5.53;1.15;;;;;;;;;;10311198;28;20102;-79
2022/09/19 10:19:22;;;;;;;8.02;1.65;;;;;;;;;;10306310;28;20057;-79
2022/09/19 10:24:43;;;;;;;6.82;1.25;;;;;;;;;;10315868;28;20044;-77
2022/09/19 10:30:01;;;;;;;5.05;1.67;;;;;;;;;;10295801;28;20042;-77
2022/09/19 10:35:26;;;;;;;4.72;1.27;;;;;;;;;;10315325;28;20097;-77
2022/09/19 10:40:33;;;;;;;2.95;0.57;;;;;;;;;;10301712;28;20534;-76
2022/09/19 10:45:37;;;;;;;5.05;1.27;;;;;;;;;;10299578;28;20510;-80
2022/09/19 10:50:47;;;;;;;8.43;1.55;;;;;;;;;;10307387;28;20041;-80
2022/09/19 10:55:53;;;;;;;3.13;0.85;;;;;;;;;;10293010;28;20109;-78
2022/09/19 11:01:01;;;;;;;4.75;1.30;;;;;;;;;;10291006;28;20125;-79
2022/09/19 11:06:16;;;;;;;4.07;1.80;;;;;;;;;;10293606;28;20049;-81
2022/09/19 11:11:40;;;;;;;6.47;1.63;;;;;;;;;;10294653;28;20388;-79
2022/09/19 11:17:15;;;;;;;2.55;0.75;;;;;;;;;;10296798;28;20129;-79
2022/09/19 11:22:38;;;;;;;2.55;0.90;;;;;;;;;;10288206;28;20096;-79
2022/09/19 11:28:01;;;;;;;2.38;0.85;;;;;;;;;;10295097;28;20538;-78
2022/09/19 11:33:26;;;;;;;2.35;0.80;;;;;;;;;;10297636;28;20231;-79
2022/09/19 11:39:15;;;;;;;6.10;1.20;;;;;;;;;;10295029;28;20050;-79
2022/09/19 11:44:53;;;;;;;2.67;0.55;;;;;;;;;;10291608;28;20509;-79
2022/09/19 11:50:14;;;;;;;7.28;1.23;;;;;;;;;;10295759;28;20046;-80
2022/09/19 11:55:32;;;;;;;1.17;0.40;;;;;;;;;;10296937;28;20066;-78
2022/09/19 12:00:46;;;;;;;4.03;0.73;;;;;;;;;;10288125;28;20042;-78
2022/09/19 12:06:13;;;;;;;1.77;0.50;;;;;;;;;;10307793;28;20046;-78
2022/09/19 12:11:26;;;;;;;1.80;0.43;;;;;;;;;;10320649;28;20046;-76
2022/09/19 12:16:37;;;;;;;1.15;0.50;;;;;;;;;;10311583;28;20260;-80
2022/09/19 12:21:48;;;;;;;2.13;0.43;;;;;;;;;;10302292;28;20042;-78
2022/09/19 12:26:57;;;;;;;2.47;0.70;;;;;;;;;;10308021;28;20070;-78
2022/09/19 12:32:13;;;;;;;0.70;0.30;;;;;;;;;;10316054;28;20050;-79
2022/09/19 12:37:21;;;;;;;3.35;0.80;;;;;;;;;;10306247;28;20082;-78
2022/09/19 12:42:33;;;;;;;3.17;0.80;;;;;;;;;;10304927;28;20790;-77
2022/09/19 12:47:54;;;;;;;1.73;0.70;;;;;;;;;;10313265;28;20050;-78
2022/09/19 12:53:27;;;;;;;3.88;0.70;;;;;;;;;;10314964;28;20046;-77
2022/09/19 12:58:40;;;;;;;4.57;1.00;;;;;;;;;;10332519;28;20064;-77
2022/09/19 13:03:48;;;;;;;4.78;1.05;;;;;;;;;;10309031;28;20050;-77
2022/09/19 13:08:56;;;;;;;2.78;0.60;;;;;;;;;;10336654;28;20518;-78
2022/09/19 13:14:10;;;;;;;6.63;0.90;;;;;;;;;;10315797;28;20120;-78
2022/09/19 13:24:54;;;;;;;0.98;0.50;;;;;;;;;;10312463;28;20042;-78
2022/09/19 13:30:00;;;;;;;3.97;0.85;;;;;;;;;;10306174;28;20097;-78
2022/09/19 13:35:16;;;;;;;2.40;0.60;;;;;;;;;;10305942;28;20046;-77
2022/09/19 13:40:39;;;;;;;6.22;1.00;;;;;;;;;;10301877;28;20048;-78
2022/09/19 13:45:50;;;;;;;3.47;0.80;;;;;;;;;;10320273;28;20050;-77
2022/09/19 13:51:00;;;;;;;4.05;1.02;;;;;;;;;;10300742;28;20587;-77
2022/09/19 13:56:14;;;;;;;4.10;0.40;;;;;;;;;;10293083;28;20395;-83
2022/09/19 14:01:21;;;;;;;1.35;0.40;;;;;;;;;;10300132;28;20130;-82
2022/09/19 14:06:29;;;;;;;1.08;0.20;;;;;;;;;;10300979;28;20052;-78
2022/09/19 14:11:32;;;;;;;1.55;0.55;;;;;;;;;;10317338;28;20507;-77
2022/09/19 14:16:38;;;;;;;2.35;0.80;;;;;;;;;;10291324;28;20054;-79
2022/09/19 14:21:57;;;;;;;2.75;0.55;;;;;;;;;;10301040;28;20049;-77
2022/09/19 14:27:09;;;;;;;4.32;0.60;;;;;;;;;;10295746;28;20493;-77
2022/09/19 14:32:27;;;;;;;1.92;0.30;;;;;;;;;;10331718;28;20121;-78
2022/09/19 14:37:46;;;;;;;1.15;0.30;;;;;;;;;;10296106;28;20050;-77
2022/09/19 14:43:37;;;;;;;4.93;0.52;;;;;;;;;;10317519;28;20046;-77
2022/09/19 14:48:48;;;;;;;3.50;0.90;;;;;;;;;;10287519;28;20126;-77
2022/09/19 14:53:54;;;;;;;2.00;0.57;;;;;;;;;;10312015;28;20042;-77
2022/09/19 14:58:59;;;;;;;4.95;0.70;;;;;;;;;;10313925;28;20129;-77
2022/09/19 15:04:16;;;;;;;4.15;0.70;;;;;;;;;;10313185;28;20406;-77
2022/09/19 15:09:26;;;;;;;2.65;0.57;;;;;;;;;;10297187;28;20043;-77
2022/09/19 15:14:30;;;;;;;2.92;1.00;;;;;;;;;;10321323;28;20129;-77
2022/09/19 15:19:36;;;;;;;4.15;0.70;;;;;;;;;;10304657;28;20046;-77
2022/09/19 15:24:43;;;;;;;0.60;0.40;;;;;;;;;;10304416;28;20042;-77
2022/09/19 15:29:48;;;;;;;2.70;0.52;;;;;;;;;;10331035;28;20053;-77
2022/09/19 15:34:56;;;;;;;0.77;0.28;;;;;;;;;;10312553;28;20046;-76
2022/09/19 15:40:01;;;;;;;0.63;0.30;;;;;;;;;;10309598;28;20206;-79
2022/09/19 15:45:35;;;;;;;0.80;0.22;;;;;;;;;;10323497;28;20137;-77
2022/09/19 15:50:42;;;;;;;2.38;0.47;;;;;;;;;;10298795;28;20050;-78
2022/09/19 15:55:59;;;;;;;1.85;0.43;;;;;;;;;;10306246;28;20053;-76
2022/09/19 16:01:21;;;;;;;1.83;0.40;;;;;;;;;;10324645;28;20035;-79
2022/09/19 16:11:54;;;;;;;1.25;0.43;;;;;;;;;;10298688;28;20515;-76
2022/09/19 16:16:59;;;;;;;0.88;0.32;;;;;;;;;;10309819;28;20046;-78
2022/09/19 16:22:05;;;;;;;1.35;0.30;;;;;;;;;;10333200;28;20050;-75
2022/09/19 16:27:09;;;;;;;1.25;0.30;;;;;;;;;;10319361;28;20046;-79
2022/09/19 16:32:16;;;;;;;1.13;0.30;;;;;;;;;;10341329;28;20045;-78
2022/09/19 16:37:27;;;;;;;0.45;0.30;;;;;;;;;;10301759;28;20057;-77
2022/09/19 16:42:32;;;;;;;1.08;0.43;;;;;;;;;;10304090;28;20050;-76
2022/09/19 16:47:36;;;;;;;0.52;0.20;;;;;;;;;;10311022;28;20042;-78
2022/09/19 16:52:43;;;;;;;2.47;0.30;;;;;;;;;;10305825;28;20069;-77
2022/09/19 16:57:46;;;;;;;1.27;0.20;;;;;;;;;;10303315;28;20053;-77
2022/09/19 17:02:50;;;;;;;2.03;0.50;;;;;;;;;;10322856;28;20047;-77
2022/09/19 17:07:55;;;;;;;1.23;0.55;;;;;;;;;;10319637;28;20069;-78
2022/09/19 17:12:59;;;;;;;2.13;0.43;;;;;;;;;;10304092;28;20046;-78
2022/09/19 17:18:03;;;;;;;0.98;0.40;;;;;;;;;;10301610;28;20056;-77
2022/09/19 17:23:08;;;;;;;0.93;0.40;;;;;;;;;;10320654;28;20106;-78
2022/09/19 17:28:12;;;;;;;1.25;0.50;;;;;;;;;;10298936;28;20051;-77
2022/09/19 17:33:16;;;;;;;1.13;0.30;;;;;;;;;;10341791;28;20053;-77
2022/09/19 17:38:21;;;;;;;0.35;0.28;;;;;;;;;;10298180;28;20042;-78
2022/09/19 17:43:24;;;;;;;1.20;0.20;;;;;;;;;;10310231;28;20046;-77
2022/09/19 17:48:28;;;;;;;1.40;0.32;;;;;;;;;;10319721;28;20221;-77
2022/09/19 17:53:32;;;;;;;1.67;0.40;;;;;;;;;;10300028;28;20046;-77
2022/09/19 17:58:36;;;;;;;1.13;0.60;;;;;;;;;;10298173;28;20045;-81
2022/09/19 18:03:42;;;;;;;0.68;0.30;;;;;;;;;;10304334;28;20089;-77
2022/09/19 18:08:46;;;;;;;;;;;;;;;;;;10299121;28;20062;-77
2022/09/19 18:13:53;;;;;;;0.85;0.40;;;;;;;;;;10320689;28;19929;-76
2022/09/19 18:18:59;;;;;;;1.75;0.28;;;;;;;;;;10311821;28;20042;-76
2022/09/19 18:24:04;;;;;;;0.83;0.40;;;;;;;;;;10329718;28;20709;-76
2022/09/19 18:29:08;;;;;;;1.00;0.40;;;;;;;;;;10312973;28;20045;-76
2022/09/19 18:34:11;;;;;;;2.00;0.60;;;;;;;;;;10329836;28;20649;-77
2022/09/19 18:39:15;;;;;;;1.17;0.50;;;;;;;;;;10326568;28;20050;-76
2022/09/19 18:44:20;;;;;;;0.30;0.30;;;;;;;;;;10321960;28;20037;-76
2022/09/19 18:49:24;;;;;;;3.63;0.60;;;;;;;;;;10327568;28;20447;-78
2022/09/19 18:54:29;;;;;;;0.68;0.40;;;;;;;;;;10325954;28;20042;-78
2022/09/19 18:59:33;;;;;;;2.25;0.43;;;;;;;;;;10328071;28;20054;-78
2022/09/19 19:04:36;;;;;;;2.05;0.60;;;;;;;;;;10323650;28;20041;-77
2022/09/19 19:09:41;;;;;;;1.05;0.40;;;;;;;;;;10301900;28;20703;-77
2022/09/19 19:14:53;;;;;;;1.17;0.50;;;;;;;;;;10312909;28;20057;-77
2022/09/19 19:19:56;;;;;;;1.27;0.40;;;;;;;;;;10298071;28;20050;-77
2022/09/19 19:25:01;;;;;;;1.60;0.85;;;;;;;;;;10313134;28;20042;-77
2022/09/19 19:30:05;;;;;;;1.48;0.95;;;;;;;;;;10315857;28;20049;-77
2022/09/19 19:35:09;;;;;;;1.70;1.05;;;;;;;;;;10317309;28;20042;-76
2022/09/19 19:40:13;;;;;;;2.17;1.20;;;;;;;;;;10314891;28;20049;-77
2022/09/19 19:45:17;;;;;;;1.85;0.77;;;;;;;;;;10294731;28;20048;-77
2022/09/19 19:50:20;;;;;;;2.13;0.80;;;;;;;;;;10325344;28;20042;-76
2022/09/19 19:55:25;;;;;;;1.65;0.88;;;;;;;;;;10305787;28;20049;-77
2022/09/19 20:00:28;;;;;;;3.03;1.10;;;;;;;;;;10322345;28;20441;-76
2022/09/19 20:05:31;;;;;;;2.65;1.02;;;;;;;;;;10293158;28;20130;-76
2022/09/19 20:10:37;;;;;;;2.47;1.38;;;;;;;;;;10313145;28;20057;-77
2022/09/19 20:15:40;;;;;;;3.07;1.73;;;;;;;;;;10311561;28;20058;-78
2022/09/19 20:20:45;;;;;;;2.42;1.48;;;;;;;;;;10308150;28;20053;-79
2022/09/19 20:25:50;;;;;;;3.30;1.63;;;;;;;;;;10299594;28;20038;-78
2022/09/19 20:31:00;;;;;;;1.92;1.20;;;;;;;;;;10308922;28;20417;-78
2022/09/19 20:36:08;;;;;;;2.70;1.52;;;;;;;;;;10306697;28;20038;-77
2022/09/19 20:41:13;;;;;;;2.15;1.20;;;;;;;;;;10310267;28;20042;-78
2022/09/19 20:46:18;;;;;;;4.50;1.47;;;;;;;;;;10318560;28;20049;-77
2022/09/19 20:51:22;;;;;;;1.80;1.17;;;;;;;;;;10305715;28;20395;-78
2022/09/19 20:56:28;;;;;;;2.40;1.05;;;;;;;;;;10311423;28;20073;-78
2022/09/19 21:01:34;;;;;;;2.03;1.60;;;;;;;;;;10308787;28;20129;-77
2022/09/19 21:06:38;;;;;;;2.13;1.08;;;;;;;;;;10312915;28;20509;-78
2022/09/19 21:11:43;;;;;;;2.05;1.15;;;;;;;;;;10304241;28;20066;-77
2022/09/19 21:16:46;;;;;;;2.33;1.20;;;;;;;;;;10318786;28;20056;-77
2022/09/19 21:21:50;;;;;;;1.73;1.10;;;;;;;;;;10304339;28;20080;-77
2022/09/19 21:26:54;;;;;;;2.67;1.20;;;;;;;;;;10301074;28;20065;-77
2022/09/19 21:31:58;;;;;;;1.90;1.45;;;;;;;;;;10320332;28;20090;-77
2022/09/19 21:37:01;;;;;;;2.72;1.48;;;;;;;;;;10319938;28;20034;-78
2022/09/19 21:42:06;;;;;;;2.47;1.30;;;;;;;;;;10325532;28;20511;-78
2022/09/19 21:47:09;;;;;;;3.35;1.40;;;;;;;;;;10307375;28;20070;-79
2022/09/19 21:52:13;;;;;;;2.78;1.10;;;;;;;;;;10323840;28;20042;-78
2022/09/19 21:57:17;;;;;;;2.13;1.50;;;;;;;;;;10307037;28;20038;-77
2022/09/19 22:02:21;;;;;;;2.58;1.50;;;;;;;;;;10313381;28;20084;-78
2022/09/19 22:07:24;;;;;;;2.50;1.50;;;;;;;;;;10308103;28;20042;-77
2022/09/19 22:12:29;;;;;;;2.38;1.40;;;;;;;;;;10326012;28;20068;-79
2022/09/19 22:17:32;;;;;;;3.00;1.75;;;;;;;;;;10322676;28;20038;-79
2022/09/19 22:22:36;;;;;;;3.03;1.58;;;;;;;;;;10320973;28;20109;-79
2022/09/19 22:27:42;;;;;;;2.47;1.40;;;;;;;;;;10307018;28;20070;-79
2022/09/19 22:32:45;;;;;;;2.47;1.15;;;;;;;;;;10313576;28;20047;-79
2022/09/19 22:37:48;;;;;;;3.47;1.05;;;;;;;;;;10306383;28;20058;-79
2022/09/19 22:42:53;;;;;;;2.78;1.10;;;;;;;;;;10304432;28;20057;-76
2022/09/19 22:47:56;;;;;;;1.38;1.10;;;;;;;;;;10304277;28;20407;-79
2022/09/19 22:53:00;;;;;;;2.58;0.90;;;;;;;;;;10321147;28;20194;-75
2022/09/19 22:58:05;;;;;;;2.67;0.80;;;;;;;;;;10303690;28;20046;-79
2022/09/19 23:03:10;;;;;;;1.35;0.82;;;;;;;;;;10312893;28;20050;-78
2022/09/19 23:08:13;;;;;;;2.85;1.02;;;;;;;;;;10321049;28;20038;-76
2022/09/19 23:18:39;;;;;;;2.25;1.10;;;;;;;;;;10304047;28;20507;-78
2022/09/19 23:23:42;;;;;;;1.13;0.75;;;;;;;;;;10305294;28;20046;-78
2022/09/19 23:28:48;;;;;;;1.00;0.80;;;;;;;;;;10327289;28;20046;-77
2022/09/19 23:33:51;;;;;;;1.37;0.83;;;;;;;;;;10312812;28;20057;-77
2022/09/19 23:38:55;;;;;;;1.65;0.98;;;;;;;;;;10301928;28;20050;-78
2022/09/19 23:44:00;;;;;;;3.80;1.10;;;;;;;;;;10301536;28;20525;-79
2022/09/19 23:49:05;;;;;;;3.72;1.05;;;;;;;;;;10300355;28;20042;-75
2022/09/19 23:54:08;;;;;;;2.38;1.00;;;;;;;;;;10318965;28;20065;-79
2022/09/19 23:59:13;;;;;;;2.05;0.90;;;;;;;;;;10323970;28;20044;-78
